createdAt,value
2019-03-03T00:00:28.796Z,20.63
2019-03-03T00:02:57.238Z,19.23
2019-03-03T00:05:25.660Z,21.03
2019-03-03T00:07:54.115Z,19.40
2019-03-03T00:10:22.612Z,19.57
2019-03-03T00:12:51.027Z,19.50
2019-03-03T00:15:19.559Z,19.87
2019-03-03T00:17:48.048Z,19.97
2019-03-03T00:20:16.547Z,20.53
2019-03-03T00:22:44.980Z,19.10
2019-03-03T00:25:14.359Z,20.47
2019-03-03T00:27:42.783Z,22.57
2019-03-03T00:30:18.125Z,21.63
2019-03-03T00:32:46.555Z,21.53
2019-03-03T00:35:15.258Z,20.50
2019-03-03T00:40:49.687Z,22.43
2019-03-03T00:43:19.748Z,22.10
2019-03-03T00:45:49.832Z,23.80
2019-03-03T00:48:36.044Z,23.20
2019-03-03T00:51:06.191Z,22.10
2019-03-03T00:53:39.207Z,22.83
2019-03-03T00:56:11.680Z,23.40
2019-03-03T00:58:41.747Z,22.07
2019-03-03T01:01:17.686Z,22.13
2019-03-03T01:03:50.571Z,22.03
2019-03-03T01:06:38.795Z,21.63
2019-03-03T01:09:38.232Z,22.40
2019-03-03T01:12:20.431Z,21.40
2019-03-03T01:15:06.791Z,22.47
2019-03-03T01:17:36.851Z,23.10
2019-03-03T01:20:09.994Z,23.57
2019-03-03T01:22:40.060Z,22.60
2019-03-03T01:25:08.487Z,23.03
2019-03-03T01:27:36.908Z,24.53
2019-03-03T01:30:08.415Z,23.40
2019-03-03T01:32:36.839Z,21.13
2019-03-03T01:35:06.995Z,21.77
2019-03-03T01:37:35.430Z,23.17
2019-03-03T01:40:05.296Z,23.77
2019-03-03T01:42:33.719Z,23.37
2019-03-03T01:45:02.140Z,25.03
2019-03-03T01:47:30.580Z,23.10
2019-03-03T01:49:59.000Z,24.13
2019-03-03T01:52:27.439Z,22.87
2019-03-03T01:54:55.859Z,24.63
2019-03-03T01:57:24.295Z,23.13
2019-03-03T01:59:52.711Z,24.47
2019-03-03T02:02:21.311Z,24.37
2019-03-03T02:04:49.799Z,25.00
2019-03-03T02:07:18.227Z,23.90
2019-03-03T02:09:46.647Z,24.60
2019-03-03T02:12:15.150Z,24.53
2019-03-03T02:14:43.571Z,23.93
2019-03-03T02:17:14.791Z,23.53
2019-03-03T02:19:43.209Z,23.87
2019-03-03T02:22:11.706Z,25.80
2019-03-03T02:24:40.282Z,23.27
2019-03-03T02:27:08.719Z,24.37
2019-03-03T02:29:37.136Z,25.27
2019-03-03T02:32:06.517Z,24.33
2019-03-03T02:34:34.941Z,23.83
2019-03-03T02:37:03.455Z,24.03
2019-03-03T02:39:31.877Z,23.97
2019-03-03T02:42:00.317Z,24.93
2019-03-03T02:44:28.772Z,24.80
2019-03-03T02:46:57.237Z,24.43
2019-03-03T02:49:25.679Z,24.93
2019-03-03T02:51:54.108Z,25.53
2019-03-03T02:54:22.536Z,26.20
2019-03-03T02:56:50.990Z,25.70
2019-03-03T02:59:19.473Z,26.63
2019-03-03T03:01:49.544Z,25.33
2019-03-03T03:04:17.963Z,26.27
2019-03-03T03:06:53.789Z,26.23
2019-03-03T03:09:26.739Z,26.07
2019-03-03T03:12:02.597Z,25.83
2019-03-03T03:14:44.495Z,25.63
2019-03-03T03:17:17.468Z,27.23
2019-03-03T03:19:59.252Z,25.07
2019-03-03T03:22:32.013Z,26.03
2019-03-03T03:25:04.824Z,23.90
2019-03-03T03:27:37.817Z,24.97
2019-03-03T03:30:16.152Z,26.17
2019-03-03T03:32:46.213Z,26.30
2019-03-03T03:35:28.119Z,25.87
2019-03-03T03:37:58.191Z,25.07
2019-03-03T03:40:37.025Z,25.70
2019-03-03T03:43:07.101Z,24.83
2019-03-03T03:45:37.152Z,24.00
2019-03-03T03:48:10.256Z,25.77
2019-03-03T03:50:40.312Z,27.80
2019-03-03T03:53:13.279Z,25.27
2019-03-03T03:55:46.244Z,27.43
2019-03-03T03:58:25.119Z,27.93
2019-03-03T04:00:57.848Z,27.17
2019-03-03T04:03:39.776Z,27.60
2019-03-03T04:06:15.561Z,28.13
2019-03-03T04:08:54.408Z,26.30
2019-03-03T04:11:27.177Z,26.57
2019-03-03T04:14:12.175Z,28.33
2019-03-03T04:17:00.749Z,28.00
2019-03-03T04:19:39.591Z,27.87
2019-03-03T04:22:25.809Z,27.67
2019-03-03T04:24:55.877Z,25.40
2019-03-03T04:27:28.965Z,24.90
2019-03-03T04:29:59.020Z,25.57
2019-03-03T04:32:31.783Z,24.33
2019-03-03T04:35:07.542Z,24.77
2019-03-03T04:37:43.375Z,24.67
2019-03-03T04:40:16.486Z,24.33
2019-03-03T04:43:04.339Z,23.60
2019-03-03T04:45:34.410Z,23.53
2019-03-03T04:48:07.123Z,23.43
2019-03-03T04:50:46.327Z,23.43
2019-03-03T04:53:19.332Z,23.00
2019-03-03T04:56:04.230Z,24.13
2019-03-03T04:58:34.297Z,23.17
2019-03-03T05:01:07.308Z,20.83
2019-03-03T05:03:53.753Z,21.00
2019-03-03T05:06:26.520Z,22.33
2019-03-03T05:09:02.251Z,21.07
2019-03-03T05:11:57.372Z,20.83
2019-03-03T05:14:27.431Z,20.10
2019-03-03T05:16:57.508Z,18.83
2019-03-03T05:19:25.945Z,19.00
2019-03-03T05:21:54.367Z,19.07
2019-03-03T05:24:22.791Z,19.43
2019-03-03T05:26:51.246Z,19.37
2019-03-03T05:29:19.725Z,18.63
2019-03-03T05:31:48.160Z,18.27
2019-03-03T05:34:16.587Z,18.20
2019-03-03T05:36:45.011Z,16.83
2019-03-03T05:39:13.604Z,18.00
2019-03-03T05:41:42.032Z,15.57
2019-03-03T05:44:10.467Z,16.97
2019-03-03T05:46:38.917Z,16.87
2019-03-03T05:49:07.402Z,17.23
2019-03-03T05:51:35.836Z,16.20
2019-03-03T05:54:04.251Z,16.37
2019-03-03T05:56:32.748Z,15.97
2019-03-03T05:59:01.175Z,14.97
2019-03-03T06:01:29.601Z,14.73
2019-03-03T06:03:58.019Z,13.37
2019-03-03T06:06:26.454Z,13.70
2019-03-03T06:08:54.873Z,13.13
2019-03-03T06:11:23.317Z,13.20
2019-03-03T06:13:51.739Z,14.53
2019-03-03T06:16:20.171Z,13.00
2019-03-03T06:18:48.596Z,12.47
2019-03-03T06:21:17.028Z,11.87
2019-03-03T06:23:45.447Z,11.47
2019-03-03T06:26:13.956Z,10.40
2019-03-03T06:28:42.388Z,10.30
2019-03-03T06:31:10.807Z,10.67
2019-03-03T06:33:39.231Z,10.37
2019-03-03T06:36:07.665Z,8.87
2019-03-03T06:38:36.095Z,8.63
2019-03-03T06:41:04.576Z,8.70
2019-03-03T06:43:34.625Z,8.37
2019-03-03T06:46:03.094Z,8.47
2019-03-03T06:48:31.522Z,8.40
2019-03-03T06:50:59.939Z,7.87
2019-03-03T06:53:28.370Z,7.33
2019-03-03T06:55:56.784Z,7.77
2019-03-03T06:58:25.212Z,7.30
2019-03-03T07:00:53.626Z,7.13
2019-03-03T07:03:22.055Z,7.33
2019-03-03T07:05:50.471Z,7.13
2019-03-03T07:08:18.900Z,6.33
2019-03-03T07:10:47.315Z,7.50
2019-03-03T07:13:15.797Z,7.17
2019-03-03T07:15:44.221Z,6.63
2019-03-03T07:18:12.644Z,6.77
2019-03-03T07:20:41.068Z,6.27
2019-03-03T07:23:09.497Z,6.13
2019-03-03T07:25:37.912Z,5.53
2019-03-03T07:28:06.347Z,5.70
2019-03-03T07:30:34.770Z,5.87
2019-03-03T07:33:04.911Z,6.13
2019-03-03T07:35:33.332Z,5.73
2019-03-03T07:38:01.761Z,4.73
2019-03-03T07:40:30.175Z,5.40
2019-03-03T07:42:58.605Z,5.20
2019-03-03T07:45:27.291Z,5.30
2019-03-03T07:47:55.734Z,5.80
2019-03-03T07:50:24.219Z,4.40
2019-03-03T07:52:52.655Z,4.60
2019-03-03T07:55:21.075Z,5.43
2019-03-03T07:57:49.516Z,4.77
2019-03-03T08:00:17.957Z,4.60
2019-03-03T08:02:46.387Z,4.00
2019-03-03T08:05:14.803Z,4.43
2019-03-03T08:07:43.238Z,4.80
2019-03-03T08:10:15.379Z,5.07
2019-03-03T08:12:43.798Z,4.70
2019-03-03T08:15:18.228Z,5.57
2019-03-03T08:17:46.727Z,4.77
2019-03-03T08:20:15.381Z,4.50
2019-03-03T08:22:43.810Z,5.33
2019-03-03T08:25:13.072Z,3.40
2019-03-03T08:27:41.584Z,4.37
2019-03-03T08:30:15.984Z,3.90
2019-03-03T08:32:44.419Z,4.70
2019-03-03T08:35:18.359Z,4.70
2019-03-03T08:37:46.840Z,4.53
2019-03-03T08:40:15.273Z,4.33
2019-03-03T08:42:54.100Z,4.17
2019-03-03T08:45:36.519Z,4.37
2019-03-03T08:48:09.807Z,4.67
2019-03-03T08:50:46.052Z,4.20
2019-03-03T08:53:16.131Z,4.03
2019-03-03T08:55:49.128Z,4.90
2019-03-03T08:58:24.932Z,4.50
2019-03-03T09:01:06.612Z,4.40
2019-03-03T09:03:42.635Z,4.10
2019-03-03T09:06:18.641Z,4.77
2019-03-03T09:08:54.691Z,4.43
2019-03-03T09:11:27.467Z,4.27
2019-03-03T09:14:13.417Z,4.87
2019-03-03T09:17:01.573Z,4.70
2019-03-03T09:19:31.711Z,4.27
2019-03-03T09:22:04.857Z,4.07
2019-03-03T09:24:51.377Z,5.37
2019-03-03T09:27:37.485Z,4.20
2019-03-03T09:30:22.443Z,3.83
2019-03-03T09:32:55.299Z,3.77
2019-03-03T09:35:28.268Z,3.80
2019-03-03T09:37:58.345Z,3.97
2019-03-03T09:40:28.402Z,4.23
2019-03-03T09:43:04.477Z,4.17
2019-03-03T09:45:43.479Z,3.80
2019-03-03T09:48:28.400Z,3.47
2019-03-03T09:51:01.284Z,3.97
2019-03-03T09:53:49.485Z,4.07
2019-03-03T09:56:19.615Z,4.37
2019-03-03T09:58:49.670Z,3.80
2019-03-03T10:01:25.543Z,3.77
2019-03-03T10:04:11.871Z,4.03
2019-03-03T10:06:48.946Z,3.97
2019-03-03T10:09:36.774Z,3.93
2019-03-03T10:12:09.523Z,4.47
2019-03-03T10:14:48.430Z,10.43
2019-03-03T10:17:34.983Z,3.73
2019-03-03T10:20:06.398Z,4.00
2019-03-03T10:22:52.191Z,4.17
2019-03-03T10:25:34.304Z,4.30
2019-03-03T10:28:04.432Z,3.53
2019-03-03T10:30:37.381Z,4.43
2019-03-03T10:33:25.784Z,3.27
2019-03-03T10:36:04.696Z,3.67
2019-03-03T10:38:37.663Z,3.60
2019-03-03T10:41:07.737Z,4.10
2019-03-03T10:43:37.903Z,3.90
2019-03-03T10:46:19.711Z,4.40
2019-03-03T10:48:52.451Z,3.80
2019-03-03T10:51:38.860Z,4.73
2019-03-03T10:54:11.890Z,3.57
2019-03-03T10:56:51.767Z,3.50
2019-03-03T10:59:36.820Z,3.63
2019-03-03T11:02:09.567Z,3.67
2019-03-03T11:04:55.911Z,3.40
2019-03-03T11:07:42.363Z,3.60
2019-03-03T11:10:18.808Z,4.23
2019-03-03T11:12:49.519Z,4.07
2019-03-03T11:15:28.471Z,4.30
2019-03-03T11:20:42.936Z,4.60
2019-03-03T11:23:13.000Z,4.93
2019-03-03T11:25:49.198Z,6.50
2019-03-03T11:28:25.058Z,4.30
2019-03-03T11:31:11.052Z,4.70
2019-03-03T11:33:41.118Z,6.67
2019-03-03T11:36:14.024Z,4.73
2019-03-03T11:38:49.877Z,4.37
2019-03-03T11:41:28.732Z,5.83
2019-03-03T11:44:10.931Z,4.00
2019-03-03T11:46:46.983Z,5.70
2019-03-03T11:49:17.052Z,3.83
2019-03-03T11:51:47.133Z,4.13
2019-03-03T11:54:20.046Z,4.57
2019-03-03T11:56:59.025Z,3.73
2019-03-03T11:59:32.066Z,4.50
2019-03-03T12:02:17.863Z,4.17
2019-03-03T12:04:53.600Z,3.53
2019-03-03T12:07:29.697Z,4.17
2019-03-03T12:10:15.059Z,3.93
2019-03-03T12:13:01.775Z,4.60
2019-03-03T12:15:31.837Z,5.10
2019-03-03T12:18:14.087Z,4.47
2019-03-03T12:20:53.391Z,4.67
2019-03-03T12:23:29.343Z,5.10
2019-03-03T12:26:11.517Z,4.10
2019-03-03T12:28:41.576Z,4.00
2019-03-03T12:31:27.739Z,4.17
2019-03-03T12:33:57.859Z,3.90
2019-03-03T12:36:27.934Z,3.60
2019-03-03T12:38:57.993Z,3.87
2019-03-03T12:41:31.021Z,3.67
2019-03-03T12:44:01.124Z,4.33
2019-03-03T12:46:40.316Z,3.90
2019-03-03T12:49:16.471Z,3.80
2019-03-03T12:51:58.514Z,3.97
2019-03-03T12:54:45.236Z,4.50
2019-03-03T12:57:31.950Z,3.90
2019-03-03T13:00:07.699Z,4.70
2019-03-03T13:02:46.715Z,3.63
2019-03-03T13:05:16.767Z,3.93
2019-03-03T13:07:58.519Z,3.73
2019-03-03T13:10:34.287Z,3.77
2019-03-03T13:13:07.083Z,4.23
2019-03-03T13:15:43.059Z,4.10
2019-03-03T13:18:15.816Z,4.03
2019-03-03T13:20:45.877Z,3.93
2019-03-03T13:23:34.328Z,3.93
2019-03-03T13:26:06.992Z,4.43
2019-03-03T13:28:37.060Z,3.83
2019-03-03T13:31:12.937Z,3.47
2019-03-03T13:33:52.266Z,3.60
2019-03-03T13:36:38.200Z,3.83
2019-03-03T13:39:16.270Z,4.43
2019-03-03T13:41:52.118Z,3.80
2019-03-03T13:44:20.585Z,3.63
2019-03-03T13:46:49.024Z,3.97
2019-03-03T13:49:17.451Z,3.47
2019-03-03T13:51:45.874Z,3.47
2019-03-03T13:54:14.301Z,4.17
2019-03-03T13:56:42.902Z,3.40
2019-03-03T13:59:11.599Z,4.83
2019-03-03T14:01:40.027Z,4.20
2019-03-03T14:04:08.535Z,4.53
2019-03-03T14:06:37.069Z,3.80
2019-03-03T14:09:07.195Z,4.57
2019-03-03T14:11:35.690Z,4.17
2019-03-03T14:14:04.179Z,4.03
2019-03-03T14:16:32.600Z,4.90
2019-03-03T14:19:01.045Z,4.03
2019-03-03T14:21:29.470Z,4.00
2019-03-03T14:23:57.892Z,3.93
2019-03-03T14:26:26.312Z,3.87
2019-03-03T14:28:55.370Z,3.57
2019-03-03T14:31:23.989Z,3.80
2019-03-03T14:33:52.419Z,3.93
2019-03-03T14:36:20.963Z,2.70
2019-03-03T14:38:49.401Z,3.30
2019-03-03T14:41:17.834Z,4.20
2019-03-03T14:43:47.136Z,3.60
2019-03-03T14:46:15.559Z,3.83
2019-03-03T14:48:43.991Z,4.03
2019-03-03T14:51:12.411Z,3.83
2019-03-03T14:53:41.767Z,3.90
2019-03-03T14:56:10.191Z,3.97
2019-03-03T14:58:38.636Z,3.73
2019-03-03T15:01:07.302Z,3.73
2019-03-03T15:03:35.736Z,3.40
2019-03-03T15:06:04.168Z,3.93
2019-03-03T15:08:32.602Z,3.40
2019-03-03T15:11:01.127Z,3.70
2019-03-03T15:13:29.560Z,4.70
2019-03-03T15:15:57.979Z,3.87
2019-03-03T15:18:26.435Z,3.60
2019-03-03T15:20:54.847Z,3.43
2019-03-03T15:23:23.276Z,3.83
2019-03-03T15:25:51.699Z,3.77
2019-03-03T15:28:20.119Z,4.10
2019-03-03T15:30:48.545Z,3.77
2019-03-03T15:33:16.980Z,3.60
2019-03-03T15:35:45.559Z,3.70
2019-03-03T15:38:13.987Z,3.60
2019-03-03T15:40:42.474Z,3.20
2019-03-03T15:43:11.824Z,3.50
2019-03-03T15:45:40.259Z,3.17
2019-03-03T15:48:08.688Z,3.93
2019-03-03T15:50:37.135Z,3.80
2019-03-03T15:53:05.634Z,5.10
2019-03-03T15:55:34.056Z,3.80
2019-03-03T15:58:02.500Z,3.50
2019-03-03T16:00:33.374Z,3.10
2019-03-03T16:03:01.871Z,3.63
2019-03-03T16:05:30.288Z,3.90
2019-03-03T16:07:58.721Z,3.50
2019-03-03T16:10:27.782Z,4.23
2019-03-03T16:12:56.215Z,3.60
2019-03-03T16:15:24.807Z,3.63
2019-03-03T16:17:53.326Z,2.83
2019-03-03T16:20:22.989Z,3.03
2019-03-03T16:22:51.480Z,3.90
2019-03-03T16:25:22.096Z,3.60
2019-03-03T16:27:50.528Z,3.40
2019-03-03T16:30:20.187Z,3.77
2019-03-03T16:32:48.742Z,4.40
2019-03-03T16:35:17.412Z,3.10
2019-03-03T16:37:45.902Z,3.47
2019-03-03T16:40:25.018Z,3.20
2019-03-03T16:42:53.434Z,2.93
2019-03-03T16:45:21.938Z,3.37
2019-03-03T16:47:50.360Z,3.33
2019-03-03T16:50:25.506Z,3.40
2019-03-03T16:52:53.931Z,3.60
2019-03-03T16:55:22.602Z,3.10
2019-03-03T16:57:51.023Z,3.17
2019-03-03T17:00:23.511Z,3.60
2019-03-03T17:02:52.098Z,3.47
2019-03-03T17:05:22.841Z,4.13
2019-03-03T17:07:51.273Z,3.47
2019-03-03T17:10:19.703Z,3.33
2019-03-03T17:12:48.122Z,3.40
2019-03-03T17:15:21.859Z,3.13
2019-03-03T17:17:50.335Z,3.87
2019-03-03T17:20:18.763Z,4.40
2019-03-03T17:22:47.186Z,3.30
2019-03-03T17:25:17.659Z,4.03
2019-03-03T17:27:46.159Z,3.40
2019-03-03T17:30:16.841Z,3.67
2019-03-03T17:32:45.269Z,5.03
2019-03-03T17:35:14.015Z,3.63
2019-03-03T17:37:42.481Z,8.50
2019-03-03T17:40:26.963Z,3.80
2019-03-03T17:42:55.401Z,3.97
2019-03-03T17:45:26.514Z,4.23
2019-03-03T17:47:55.070Z,3.80
2019-03-03T17:50:26.336Z,4.30
2019-03-03T17:52:54.762Z,4.50
2019-03-03T17:55:23.221Z,5.27
2019-03-03T17:57:51.810Z,4.60
2019-03-03T18:00:28.903Z,4.70
2019-03-03T18:02:57.334Z,4.20
2019-03-03T18:05:25.767Z,4.37
2019-03-03T18:07:54.257Z,4.77
2019-03-03T18:10:22.832Z,4.57
2019-03-03T18:12:51.251Z,6.73
2019-03-03T18:15:19.822Z,5.13
2019-03-03T18:17:50.334Z,3.87
2019-03-03T18:20:20.008Z,5.07
2019-03-03T18:22:48.503Z,4.60
2019-03-03T18:25:18.089Z,4.77
2019-03-03T18:27:46.597Z,4.80
2019-03-03T18:30:17.442Z,4.87
2019-03-03T18:32:45.855Z,4.10
2019-03-03T18:35:14.358Z,4.20
2019-03-03T18:37:42.776Z,3.80
2019-03-03T18:40:15.198Z,3.77
2019-03-03T18:42:43.614Z,4.10
2019-03-03T18:45:15.096Z,3.93
2019-03-03T18:47:43.525Z,4.73
2019-03-03T18:50:15.482Z,4.03
2019-03-03T18:52:43.899Z,3.37
2019-03-03T18:55:12.392Z,4.40
2019-03-03T18:57:40.816Z,3.97
2019-03-03T19:00:15.368Z,3.73
2019-03-03T19:02:43.787Z,4.20
2019-03-03T19:05:12.444Z,6.17
2019-03-03T19:07:40.853Z,3.93
2019-03-03T19:10:14.529Z,3.57
2019-03-03T19:12:42.954Z,3.63
2019-03-03T19:15:15.001Z,3.77
2019-03-03T19:17:43.427Z,3.80
2019-03-03T19:20:15.043Z,4.40
2019-03-03T19:22:43.485Z,4.37
2019-03-03T19:25:13.711Z,3.50
2019-03-03T19:27:42.425Z,3.60
2019-03-03T19:30:13.952Z,3.90
2019-03-03T19:32:43.817Z,3.73
2019-03-03T19:35:12.816Z,3.60
2019-03-03T19:37:41.252Z,3.53
2019-03-03T19:40:11.834Z,3.60
2019-03-03T19:42:40.332Z,3.17
2019-03-03T19:45:26.782Z,4.20
2019-03-03T19:47:55.205Z,3.90
2019-03-03T19:50:23.719Z,3.83
2019-03-03T19:52:52.151Z,3.60
2019-03-03T19:55:20.562Z,3.73
2019-03-03T19:57:49.001Z,3.63
2019-03-03T20:00:40.562Z,3.70
2019-03-03T20:03:09.128Z,3.63
2019-03-03T20:05:37.622Z,3.77
2019-03-03T20:08:06.718Z,4.17
2019-03-03T20:10:35.275Z,3.77
2019-03-03T20:13:03.947Z,4.10
2019-03-03T20:15:32.401Z,3.70
2019-03-03T20:18:00.978Z,3.50
2019-03-03T20:20:29.408Z,4.90
2019-03-03T20:22:57.836Z,3.67
2019-03-03T20:25:26.295Z,3.80
2019-03-03T20:27:54.754Z,3.77
2019-03-03T20:30:24.232Z,3.10
2019-03-03T20:32:52.829Z,3.23
2019-03-03T20:35:21.324Z,3.70
2019-03-03T20:37:49.764Z,3.63
2019-03-03T20:40:22.953Z,3.00
2019-03-03T20:42:51.830Z,3.47
2019-03-03T20:45:33.979Z,3.93
2019-03-03T20:48:02.421Z,3.20
2019-03-03T20:50:30.864Z,3.77
2019-03-03T20:52:59.293Z,3.13
2019-03-03T20:55:30.121Z,2.70
2019-03-03T20:57:58.574Z,3.53
2019-03-03T21:00:31.781Z,3.80
2019-03-03T21:03:00.221Z,3.17
2019-03-03T21:05:28.809Z,3.20
2019-03-03T21:07:57.243Z,2.97
2019-03-03T21:10:49.409Z,3.33
2019-03-03T21:13:17.911Z,3.40
2019-03-03T21:15:46.387Z,2.77
2019-03-03T21:18:14.820Z,3.17
2019-03-03T21:20:43.239Z,2.73
2019-03-03T21:23:12.583Z,2.70
2019-03-03T21:25:41.007Z,3.20
2019-03-03T21:28:09.444Z,3.93
2019-03-03T21:30:37.859Z,2.93
2019-03-03T21:33:06.296Z,2.50
2019-03-03T21:35:34.715Z,3.53
2019-03-03T21:38:03.141Z,2.90
2019-03-03T21:40:31.565Z,3.27
2019-03-03T21:42:59.988Z,2.50
2019-03-03T21:45:29.747Z,2.73
2019-03-03T21:47:58.173Z,3.30
2019-03-03T21:50:30.876Z,2.80
2019-03-03T21:52:59.306Z,2.70
2019-03-03T21:55:27.924Z,2.87
2019-03-03T21:57:56.347Z,3.70
2019-03-03T22:00:29.067Z,2.60
2019-03-03T22:02:57.628Z,2.77
2019-03-03T22:05:26.126Z,2.43
2019-03-03T22:07:54.550Z,2.53
2019-03-03T22:10:29.112Z,2.20
2019-03-03T22:12:58.968Z,2.37
2019-03-03T22:15:27.963Z,2.70
2019-03-03T22:17:56.455Z,2.40
2019-03-03T22:20:24.888Z,3.63
2019-03-03T22:22:53.303Z,2.23
2019-03-03T22:25:22.093Z,2.40
2019-03-03T22:27:50.506Z,2.43
2019-03-03T22:30:19.875Z,2.60
2019-03-03T22:32:48.295Z,2.30
2019-03-03T22:35:16.727Z,2.67
2019-03-03T22:37:45.154Z,2.70
2019-03-03T22:40:18.686Z,2.87
2019-03-03T22:42:47.105Z,2.53
2019-03-03T22:45:16.775Z,2.70
2019-03-03T22:47:45.199Z,2.60
2019-03-03T22:50:18.011Z,2.30
2019-03-03T22:52:46.432Z,3.03
2019-03-03T22:55:16.491Z,2.63
2019-03-03T22:57:44.912Z,2.60
2019-03-03T23:00:38.423Z,2.63
2019-03-03T23:03:06.852Z,2.33
2019-03-03T23:05:41.428Z,2.37
2019-03-03T23:08:12.915Z,2.63
2019-03-03T23:10:49.936Z,2.40
2019-03-03T23:13:24.341Z,2.50
2019-03-03T23:16:15.939Z,2.47
2019-03-03T23:19:01.771Z,2.67
2019-03-03T23:21:33.263Z,2.40
2019-03-03T23:24:21.019Z,2.43
2019-03-03T23:26:49.439Z,3.77
2019-03-03T23:29:17.890Z,2.60
2019-03-03T23:31:46.305Z,2.43
2019-03-03T23:34:14.727Z,3.13
2019-03-03T23:36:43.159Z,2.50
2019-03-03T23:39:11.579Z,2.80
2019-03-03T23:41:40.015Z,3.03
2019-03-03T23:44:08.435Z,3.03
2019-03-03T23:46:36.971Z,3.20
2019-03-03T23:49:05.391Z,2.40
2019-03-03T23:51:33.820Z,2.47
2019-03-03T23:54:02.235Z,2.43
2019-03-03T23:56:30.664Z,3.20
2019-03-03T23:58:59.084Z,2.70
